McNair Village, Texas
Current Conditions -  °F | °C
As of 8:03 AM on Friday 19 Dec 2014 (Local Time) from KHLR Reporting Station
Haze Haze  
Wind Chill:   Ceiling: 500
Heat Index:   Visibility: 6mi
Dew Point:   Wind: 9mph
Humidity: 100%   Direction: 360°N
Pressure: 30.12"   Gusts: NA
Location:  31.2151°N, 97.7405°W
Report Text: KHLR 191403Z AUTO 36008KT 6SM BR OVC005 08/08 A3012 RMK AO2
Loading
Personal Weather Stations






























Interactive Weather Map New forecast layout! Learn more

10-Day Weather Forecast

Advertisements
Track Severe Weather on mobile